Time;durP1;ratioP1;P1;durP2;ratioP2;P2;SDS_P1;SDS_P2;PMS_P1;PMS_P2;Temp;Humidity;BMP_temperature;BMP_pressure;BME280_temperature;BME280_humidity;BME280_pressure;Samples;Min_cycle;Max_cycle;Signal;HPM_P1;HPM_P2
2022/03/27 00:00:55;;;;;;;16.10;7.70;;;;;;;9.94;39.90;102167.91;2569411;23;20390;-67
2022/03/27 00:01:55;;;;;;;14.03;6.87;;;;;;;10.50;39.43;102265.84;2569329;23;20148;-66
2022/03/27 00:02:56;;;;;;;11.17;6.67;;;;;;;10.35;39.26;102236.50;2569401;23;20568;-66
2022/03/27 00:03:57;;;;;;;14.10;6.70;;;;;;;10.37;39.15;102238.88;2569022;23;20505;-66
2022/03/27 00:04:58;;;;;;;11.13;6.43;;;;;;;10.56;39.25;102260.72;2569119;23;20500;-66
2022/03/27 00:05:59;;;;;;;12.63;6.73;;;;;;;10.56;38.97;102258.72;2569790;23;20382;-66
2022/03/27 00:06:59;;;;;;;12.83;6.93;;;;;;;10.61;39.05;102255.56;2569550;23;20615;-66
2022/03/27 00:08:00;;;;;;;16.63;6.93;;;;;;;10.62;39.09;102248.03;2569761;23;20180;-66
2022/03/27 00:09:01;;;;;;;12.80;6.90;;;;;;;10.63;38.79;102255.16;2556096;23;20168;-66
2022/03/27 00:10:01;;;;;;;14.37;7.30;;;;;;;10.65;39.26;102259.13;2556537;23;20160;-66
2022/03/27 00:12:21;;;;;;;17.77;6.93;;;;;;;10.70;38.65;102261.53;2559835;23;20149;-66
2022/03/27 00:13:22;;;;;;;13.73;6.50;;;;;;;10.70;39.14;102253.22;2556379;23;20423;-66
2022/03/27 00:14:23;;;;;;;10.83;6.10;;;;;;;10.72;38.45;102259.13;2555802;23;20145;-67
2022/03/27 00:15:24;;;;;;;15.03;7.07;;;;;;;10.37;39.17;102192.56;2569609;23;20147;-66
2022/03/27 00:16:25;;;;;;;10.23;6.23;;;;;;;9.81;38.46;102105.72;2569494;23;20458;-66
2022/03/27 00:17:25;;;;;;;14.03;6.63;;;;;;;10.75;38.17;102250.03;2569596;23;20155;-67
2022/03/27 00:18:26;;;;;;;13.57;6.43;;;;;;;10.67;38.67;102253.97;2569495;23;20393;-66
2022/03/27 00:19:26;;;;;;;12.97;6.37;;;;;;;10.68;38.49;102247.28;2569604;23;20179;-67
2022/03/27 00:20:27;;;;;;;12.13;5.90;;;;;;;10.72;38.71;102247.28;2569624;23;20186;-66
2022/03/27 00:21:28;;;;;;;11.20;6.13;;;;;;;9.92;38.56;102137.00;2569427;23;20150;-66
2022/03/27 00:22:29;;;;;;;13.83;6.90;;;;;;;10.76;38.29;102253.63;2568934;23;20226;-66
2022/03/27 00:23:31;;;;;;;9.07;6.30;;;;;;;10.33;38.58;102171.56;2569160;23;20382;-66
2022/03/27 00:24:32;;;;;;;11.17;6.33;;;;;;;10.83;38.11;102248.88;2569061;23;20148;-67
2022/03/27 00:25:32;;;;;;;9.93;6.47;;;;;;;10.37;38.34;102189.81;2569379;23;20487;-66
2022/03/27 00:26:33;;;;;;;13.20;6.47;;;;;;;10.79;38.18;102248.06;2556305;23;20470;-66
2022/03/27 00:27:35;;;;;;;12.03;6.33;;;;;;;10.85;38.04;102242.91;2556614;23;20627;-66
2022/03/27 00:28:36;;;;;;;12.37;6.30;;;;;;;10.85;37.92;102249.25;2568694;23;20450;-66
2022/03/27 00:29:36;;;;;;;13.77;6.93;;;;;;;10.89;38.08;102244.53;2556313;23;20399;-66
2022/03/27 00:30:37;;;;;;;11.47;6.27;;;;;;;10.89;38.33;102244.53;2556232;23;20539;-66
2022/03/27 00:31:38;;;;;;;9.63;6.40;;;;;;;10.69;38.19;102203.69;2569730;23;20218;-66
2022/03/27 00:32:38;;;;;;;14.30;6.47;;;;;;;10.88;37.86;102242.94;2569048;23;20213;-67
2022/03/27 00:33:43;;;;;;;9.77;6.00;;;;;;;10.92;38.10;102242.94;2568875;23;20387;-66
2022/03/27 00:34:43;;;;;;;13.27;6.43;;;;;;;10.94;37.87;102243.31;2569374;23;20561;-66
2022/03/27 00:35:44;;;;;;;11.33;6.50;;;;;;;10.73;38.00;102191.44;2569787;23;20171;-66
2022/03/27 00:36:45;;;;;;;11.97;6.60;;;;;;;11.01;38.20;102241.34;2556114;23;20199;-66
2022/03/27 00:37:45;;;;;;;14.13;7.13;;;;;;;10.94;37.65;102224.72;2556584;23;20170;-66
2022/03/27 00:38:46;;;;;;;13.57;7.00;;;;;;;11.02;37.68;102236.59;2569377;23;20155;-66
2022/03/27 00:39:47;;;;;;;9.17;6.03;;;;;;;10.99;38.13;102232.63;2556475;23;20159;-66
2022/03/27 00:40:50;;;;;;;11.83;6.80;;;;;;;11.01;38.10;102238.56;2556244;23;20163;-66
2022/03/27 00:41:51;;;;;;;12.60;6.68;;;;;;;11.00;38.20;102233.41;2556134;23;20159;-66
2022/03/27 00:42:52;;;;;;;16.27;6.88;;;;;;;10.40;38.26;102130.78;2556369;23;20206;-67
2022/03/27 00:43:52;;;;;;;12.93;7.20;;;;;;;10.54;37.83;102166.84;2568812;23;20290;-66
2022/03/27 00:44:53;;;;;;;14.07;6.73;;;;;;;11.04;38.06;102235.00;2569102;23;20150;-66
2022/03/27 00:45:54;;;;;;;11.03;7.40;;;;;;;10.59;37.73;102166.47;2569438;23;20584;-66
2022/03/27 00:46:54;;;;;;;17.30;7.53;;;;;;;10.68;38.78;102171.59;2556137;23;20162;-66
2022/03/27 00:47:55;;;;;;;14.70;6.50;;;;;;;10.93;38.48;102208.44;2557009;23;20614;-66
2022/03/27 00:48:56;;;;;;;13.00;6.70;;;;;;;11.07;38.27;102234.19;2570199;23;20267;-66
2022/03/27 00:49:56;;;;;;;16.17;7.20;;;;;;;11.04;38.07;102235.00;2570546;23;20373;-66
2022/03/27 00:50:57;;;;;;;10.67;6.60;;;;;;;10.97;38.16;102240.53;2570137;23;20161;-66
2022/03/27 00:51:57;;;;;;;16.97;7.13;;;;;;;10.96;38.21;102235.41;2569883;23;20177;-66
2022/03/27 00:52:58;;;;;;;10.87;6.80;;;;;;;10.86;38.23;102228.66;2570201;23;20161;-67
2022/03/27 00:53:59;;;;;;;15.67;6.60;;;;;;;10.84;38.47;102224.69;2569575;23;20149;-66
2022/03/27 00:55:00;;;;;;;11.57;6.68;;;;;;;10.26;38.17;102158.47;2570156;23;20168;-66
2022/03/27 00:56:01;;;;;;;13.95;7.13;;;;;;;10.76;38.03;102226.66;2570434;23;20231;-67
2022/03/27 00:57:01;;;;;;;11.37;7.07;;;;;;;10.79;38.77;102228.66;2570319;23;20159;-67
2022/03/27 00:58:02;;;;;;;10.90;6.70;;;;;;;10.44;38.23;102170.41;2570345;23;20150;-66
2022/03/27 00:59:03;;;;;;;12.70;6.73;;;;;;;10.77;38.47;102224.69;2570135;23;20155;-66
2022/03/27 01:00:10;;;;;;;11.97;7.13;;;;;;;10.81;38.34;102222.72;2570430;23;20386;-67
2022/03/27 01:01:16;;;;;;;11.52;7.28;;;;;;;10.81;38.29;102223.50;2570087;23;20225;-66
2022/03/27 01:02:16;;;;;;;12.77;7.35;;;;;;;10.21;38.70;102142.28;2569678;23;20558;-66
2022/03/27 01:03:23;;;;;;;13.30;7.17;;;;;;;10.82;38.42;102222.31;2570199;23;20151;-66
2022/03/27 01:04:24;;;;;;;14.13;8.15;;;;;;;10.84;38.74;102225.50;2569624;23;20577;-66
2022/03/27 01:05:24;;;;;;;12.97;8.33;;;;;;;10.79;38.67;102214.78;2556726;23;20317;-66
2022/03/27 01:06:38;;;;;;;14.53;7.67;;;;;;;10.22;39.25;102121.69;2557028;23;20151;-66
2022/03/27 01:07:40;;;;;;;13.13;7.60;;;;;;;10.87;39.06;102221.91;2557078;23;20251;-66
2022/03/27 01:10:00;;;;;;;15.30;8.15;;;;;;;10.17;38.46;102124.84;2570336;23;20357;-66
2022/03/27 01:11:00;;;;;;;11.50;7.50;;;;;;;10.45;38.71;102180.28;2570160;23;20182;-66
2022/03/27 01:12:26;;;;;;;11.73;7.53;;;;;;;10.08;38.72;102107.81;2569735;23;20216;-66
2022/03/27 01:13:28;;;;;;;15.07;7.57;;;;;;;10.62;38.82;102196.16;2554007;23;20615;-66
2022/03/27 01:14:33;;;;;;;13.13;8.00;;;;;;;10.97;38.41;102228.66;2569825;23;20151;-66
2022/03/27 01:15:39;;;;;;;16.38;8.52;;;;;;;10.95;38.35;102225.47;2556573;23;20168;-66
2022/03/27 01:16:46;;;;;;;16.60;8.93;;;;;;;10.39;38.35;102133.97;2558239;23;20204;-67
2022/03/27 01:17:46;;;;;;;12.75;7.88;;;;;;;10.75;38.50;102202.91;2570470;23;20163;-66
2022/03/27 01:18:47;;;;;;;16.17;8.77;;;;;;;10.88;38.68;102226.28;2556750;23;20206;-66
2022/03/27 01:19:50;;;;;;;14.80;8.27;;;;;;;10.42;38.60;102155.34;2557184;23;20275;-66
2022/03/27 01:20:53;;;;;;;14.23;7.68;;;;;;;10.86;39.13;102230.66;2556748;23;20163;-66
2022/03/27 01:21:53;;;;;;;14.73;8.02;;;;;;;10.80;38.99;102221.13;2556941;23;20162;-67
2022/03/27 01:22:54;;;;;;;17.03;8.03;;;;;;;10.66;39.07;102202.50;2569135;23;20183;-66
2022/03/27 01:23:56;;;;;;;13.43;7.80;;;;;;;10.91;38.48;102219.16;2569798;23;20157;-67
2022/03/27 01:24:56;;;;;;;13.45;7.65;;;;;;;10.94;38.18;102226.69;2556702;23;20166;-66
2022/03/27 01:25:57;;;;;;;13.13;8.27;;;;;;;10.48;38.73;102156.53;2557027;23;20267;-66
2022/03/27 01:26:57;;;;;;;12.03;7.70;;;;;;;10.96;38.28;102219.53;2569971;23;20153;-67
2022/03/27 01:27:58;;;;;;;13.97;8.07;;;;;;;10.93;38.57;102222.31;2570112;23;20160;-67
2022/03/27 01:28:59;;;;;;;18.10;8.13;;;;;;;10.95;38.82;102231.84;2569975;23;20184;-66
2022/03/27 01:30:00;;;;;;;13.95;8.13;;;;;;;10.84;38.59;102227.47;2570244;23;20160;-66
2022/03/27 01:31:01;;;;;;;15.70;8.23;;;;;;;10.92;38.25;102229.84;2570073;23;20181;-66
2022/03/27 01:32:03;;;;;;;14.43;7.60;;;;;;;10.97;38.22;102223.13;2569811;23;20153;-66
2022/03/27 01:33:11;;;;;;;13.73;8.38;;;;;;;10.24;37.87;102104.69;2569974;23;20150;-66
2022/03/27 01:34:11;;;;;;;15.55;7.53;;;;;;;11.03;38.00;102229.84;2569798;23;20472;-66
2022/03/27 01:35:12;;;;;;;12.97;7.10;;;;;;;10.97;38.17;102223.91;2569941;23;20174;-66
2022/03/27 01:36:22;;;;;;;13.60;7.35;;;;;;;10.93;38.17;102223.13;2570313;23;20616;-66
2022/03/27 01:37:22;;;;;;;16.67;7.15;;;;;;;10.96;38.12;102225.09;2570166;23;20143;-67
2022/03/27 01:38:23;;;;;;;13.30;7.23;;;;;;;10.40;38.06;102146.66;2570344;23;20144;-66
2022/03/27 01:39:23;;;;;;;9.67;6.77;;;;;;;11.02;37.84;102226.28;2570218;23;20150;-67
2022/03/27 01:40:24;;;;;;;14.50;7.00;;;;;;;11.09;37.87;102220.75;2570032;23;20498;-66
2022/03/27 01:41:25;;;;;;;11.83;7.40;;;;;;;11.13;37.45;102217.97;2570173;23;20190;-66
2022/03/27 01:42:25;;;;;;;9.67;6.70;;;;;;;10.99;37.78;102212.41;2569777;23;20175;-66
2022/03/27 01:43:26;;;;;;;15.90;7.13;;;;;;;11.01;37.84;102227.47;2556669;23;20292;-67
2022/03/27 01:44:26;;;;;;;13.20;6.60;;;;;;;10.23;38.00;102100.31;2543805;23;20155;-66
2022/03/27 01:45:29;;;;;;;11.63;6.53;;;;;;;10.54;38.17;102144.66;2544240;23;20197;-66
2022/03/27 01:46:35;;;;;;;12.25;6.88;;;;;;;11.05;38.20;102227.47;2557405;23;20654;-66
2022/03/27 01:47:37;;;;;;;10.60;6.75;;;;;;;11.06;38.11;102215.97;2569684;23;20607;-67
2022/03/27 01:48:38;;;;;;;15.48;7.03;;;;;;;11.09;38.06;102225.47;2556273;23;20424;-66
2022/03/27 01:49:40;;;;;;;13.37;6.77;;;;;;;11.06;37.92;102227.06;2557010;23;20190;-66
2022/03/27 01:50:41;;;;;;;11.07;6.82;;;;;;;11.14;37.98;102219.53;2570041;23;20228;-66
2022/03/27 01:51:42;;;;;;;14.37;6.70;;;;;;;11.16;38.51;102225.47;2570186;23;20163;-66
2022/03/27 01:52:43;;;;;;;12.87;7.00;;;;;;;10.79;37.90;102194.56;2569444;23;20345;-67
2022/03/27 01:53:43;;;;;;;14.33;7.03;;;;;;;10.97;37.53;102195.38;2569555;23;20495;-66
2022/03/27 01:54:44;;;;;;;12.20;6.90;;;;;;;11.22;38.42;102230.22;2569966;23;20152;-66
2022/03/27 01:55:44;;;;;;;13.13;6.80;;;;;;;11.16;37.97;102219.91;2570284;23;20148;-66
2022/03/27 01:56:45;;;;;;;10.93;6.47;;;;;;;11.10;37.41;102229.84;2569960;23;20157;-66
2022/03/27 01:57:46;;;;;;;16.33;7.35;;;;;;;11.12;37.50;102221.94;2570061;23;20225;-66
2022/03/27 01:58:46;;;;;;;11.37;6.60;;;;;;;10.34;37.65;102107.44;2569691;23;20148;-66
2022/03/27 01:59:47;;;;;;;10.93;6.40;;;;;;;10.17;37.64;102068.63;2556988;23;20216;-66
2022/03/27 02:00:48;;;;;;;12.23;7.23;;;;;;;11.17;37.47;102221.53;2544322;23;20156;-66
2022/03/27 02:01:49;;;;;;;13.60;6.40;;;;;;;11.25;37.51;102221.13;2556772;23;20178;-67
2022/03/27 02:02:49;;;;;;;10.10;6.45;;;;;;;10.81;37.15;102156.16;2569741;23;20151;-66
2022/03/27 02:03:50;;;;;;;11.27;6.53;;;;;;;11.17;37.46;102218.75;2569506;23;20153;-67
2022/03/27 02:04:54;;;;;;;11.77;6.37;;;;;;;11.22;37.37;102218.34;2556521;23;20155;-66
2022/03/27 02:05:55;;;;;;;11.50;6.60;;;;;;;11.13;37.37;102207.63;2557402;23;20206;-67
2022/03/27 02:06:55;;;;;;;9.80;6.37;;;;;;;11.21;37.27;102220.31;2569892;23;20164;-66
2022/03/27 02:07:57;;;;;;;15.50;6.80;;;;;;;10.52;37.50;102122.13;2570167;23;20381;-66
2022/03/27 02:08:59;;;;;;;10.32;6.22;;;;;;;11.20;37.32;102221.53;2570124;23;20166;-66
2022/03/27 02:09:59;;;;;;;10.30;6.50;;;;;;;11.20;37.52;102212.38;2570069;23;20155;-67
2022/03/27 02:11:02;;;;;;;12.73;6.03;;;;;;;11.21;37.30;102216.75;2569735;23;20381;-67
2022/03/27 02:12:02;;;;;;;19.52;7.10;;;;;;;11.22;37.39;102216.34;2569756;23;20153;-67
2022/03/27 02:13:03;;;;;;;13.23;6.33;;;;;;;11.20;37.46;102212.38;2569863;23;20154;-66
2022/03/27 02:14:04;;;;;;;12.30;6.10;;;;;;;11.13;37.58;102202.09;2569489;23;20606;-67
2022/03/27 02:15:06;;;;;;;10.97;6.60;;;;;;;11.17;37.79;102202.09;2569714;23;20158;-66
2022/03/27 02:16:07;;;;;;;10.50;5.68;;;;;;;10.59;37.77;102119.31;2570259;23;20238;-66
2022/03/27 02:17:10;;;;;;;13.77;6.40;;;;;;;11.25;37.61;102223.09;2569765;23;20149;-66
2022/03/27 02:18:11;;;;;;;9.38;6.03;;;;;;;11.19;37.72;102205.25;2570087;23;20597;-66
2022/03/27 02:19:12;;;;;;;10.83;6.13;;;;;;;11.39;37.33;102214.75;2556556;23;20488;-67
2022/03/27 02:20:12;;;;;;;12.07;6.60;;;;;;;11.28;37.49;102211.97;2556919;23;20204;-66
2022/03/27 02:21:13;;;;;;;11.67;6.30;;;;;;;11.22;37.88;102207.25;2569680;23;20153;-66
2022/03/27 02:22:13;;;;;;;13.33;6.27;;;;;;;11.18;37.64;102212.00;2556415;23;20167;-67
2022/03/27 02:23:14;;;;;;;9.60;5.97;;;;;;;11.19;37.75;102213.59;2556503;23;20576;-66
2022/03/27 02:24:14;;;;;;;16.53;6.20;;;;;;;10.78;37.83;102157.75;2569524;23;20616;-66
2022/03/27 02:25:16;;;;;;;11.30;5.77;;;;;;;11.19;37.69;102213.59;2569357;23;20618;-66
2022/03/27 02:26:16;;;;;;;11.63;6.05;;;;;;;11.20;37.57;102212.38;2570114;23;20152;-66
2022/03/27 02:27:17;;;;;;;13.00;6.40;;;;;;;10.88;37.66;102161.69;2569788;23;20611;-66
2022/03/27 02:28:18;;;;;;;10.87;6.37;;;;;;;11.23;37.71;102220.69;2570019;23;20206;-66
2022/03/27 02:29:19;;;;;;;11.68;5.78;;;;;;;11.18;37.48;102215.56;2569981;23;20150;-66
2022/03/27 02:30:20;;;;;;;10.75;6.07;;;;;;;11.17;37.87;102213.97;2569878;23;20150;-66
2022/03/27 02:31:20;;;;;;;11.60;5.70;;;;;;;11.17;37.68;102218.75;2570013;23;20146;-66
2022/03/27 02:32:21;;;;;;;13.20;6.23;;;;;;;11.14;37.78;102213.97;2556216;23;20171;-66
2022/03/27 02:33:21;;;;;;;11.50;6.23;;;;;;;11.16;38.02;102215.16;2556671;23;20155;-67
2022/03/27 02:34:22;;;;;;;11.23;5.97;;;;;;;11.14;37.93;102209.25;2569260;23;20147;-66
2022/03/27 02:35:23;;;;;;;10.87;6.47;;;;;;;11.06;37.72;102202.09;2569933;23;20607;-66
2022/03/27 02:36:23;;;;;;;12.93;6.50;;;;;;;10.48;38.68;102106.66;2556214;23;20168;-67
2022/03/27 02:37:24;;;;;;;10.63;6.00;;;;;;;11.11;38.61;102220.31;2556619;23;20166;-67
2022/03/27 02:38:25;;;;;;;11.13;6.43;;;;;;;10.98;38.60;102199.72;2569173;23;20151;-67
2022/03/27 02:39:26;;;;;;;11.13;6.03;;;;;;;10.36;38.36;102115.38;2569893;23;20172;-67
2022/03/27 02:40:26;;;;;;;11.90;6.70;;;;;;;11.06;38.12;102224.28;2569870;23;20160;-66
2022/03/27 02:41:27;;;;;;;12.63;5.93;;;;;;;10.44;38.43;102145.44;2556561;23;20161;-67
2022/03/27 02:42:28;;;;;;;11.97;6.07;;;;;;;10.96;38.47;102210.44;2556224;23;20696;-66
2022/03/27 02:43:28;;;;;;;10.37;5.90;;;;;;;10.97;38.19;102231.44;2556106;23;20190;-67
2022/03/27 02:44:29;;;;;;;10.47;6.47;;;;;;;10.59;38.34;102165.66;2556256;23;20191;-66
2022/03/27 02:45:30;;;;;;;13.50;6.13;;;;;;;10.61;38.22;102174.38;2569500;23;20235;-67
2022/03/27 02:46:30;;;;;;;12.17;6.47;;;;;;;11.02;38.10;102228.28;2569740;23;20181;-67
2022/03/27 02:47:32;;;;;;;10.90;6.00;;;;;;;11.04;38.57;102225.88;2569880;23;20164;-66
2022/03/27 02:48:33;;;;;;;14.25;5.93;;;;;;;11.02;38.34;102220.72;2569762;23;20230;-66
2022/03/27 02:49:33;;;;;;;11.53;6.50;;;;;;;10.99;38.26;102224.31;2569973;23;20159;-67
2022/03/27 02:50:36;;;;;;;12.80;6.07;;;;;;;10.98;38.19;102225.50;2569870;23;20181;-67
2022/03/27 02:51:38;;;;;;;10.02;6.05;;;;;;;10.85;37.94;102198.53;2569688;23;20555;-66
2022/03/27 02:52:39;;;;;;;10.52;5.82;;;;;;;11.02;38.07;102226.28;2569323;23;20157;-66
2022/03/27 02:53:39;;;;;;;12.83;6.50;;;;;;;10.40;38.36;102128.03;2569127;23;20654;-67
2022/03/27 02:54:40;;;;;;;10.30;6.13;;;;;;;10.98;38.36;102216.38;2569747;23;20153;-67
2022/03/27 02:55:40;;;;;;;12.73;5.93;;;;;;;11.02;38.06;102231.03;2570045;23;20152;-66
2022/03/27 02:56:41;;;;;;;10.93;5.83;;;;;;;11.03;38.13;102229.84;2569760;23;20622;-66
2022/03/27 02:57:42;;;;;;;14.80;6.80;;;;;;;11.04;38.19;102223.09;2569897;23;20158;-67
2022/03/27 02:58:43;;;;;;;10.40;6.10;;;;;;;11.02;38.30;102228.28;2569619;23;20161;-66
2022/03/27 02:59:43;;;;;;;12.73;6.20;;;;;;;11.02;38.20;102234.59;2570105;23;20155;-66
2022/03/27 03:00:44;;;;;;;11.03;6.00;;;;;;;10.99;38.27;102232.63;2556357;23;20179;-66
2022/03/27 03:01:44;;;;;;;10.23;5.97;;;;;;;10.47;38.10;102155.75;2556867;23;20803;-66
2022/03/27 03:02:45;;;;;;;8.80;5.73;;;;;;;10.01;38.14;102088.38;2569154;23;20602;-67
2022/03/27 03:03:46;;;;;;;13.00;6.60;;;;;;;10.96;38.40;102232.63;2569351;23;20178;-66
2022/03/27 03:04:47;;;;;;;10.43;6.60;;;;;;;10.91;38.56;102242.13;2556309;23;20164;-66
2022/03/27 03:05:48;;;;;;;11.90;6.30;;;;;;;10.57;38.86;102181.91;2556607;23;20188;-66
2022/03/27 03:06:49;;;;;;;10.23;6.20;;;;;;;10.21;38.69;102124.84;2569553;23;20226;-66
2022/03/27 03:07:50;;;;;;;13.33;6.80;;;;;;;10.49;38.81;102178.31;2569929;23;20845;-67
2022/03/27 03:08:51;;;;;;;10.47;6.27;;;;;;;10.80;38.96;102215.56;2569847;23;20789;-66
2022/03/27 03:09:53;;;;;;;11.57;5.97;;;;;;;10.94;38.62;102244.13;2569662;23;20159;-66
2022/03/27 03:10:56;;;;;;;11.00;6.30;;;;;;;10.92;38.54;102240.16;2556182;23;20762;-66
2022/03/27 03:11:56;;;;;;;14.47;6.20;;;;;;;10.50;39.11;102179.91;2556759;23;20383;-66
2022/03/27 03:12:57;;;;;;;11.73;6.47;;;;;;;10.91;38.80;102241.34;2569685;23;20390;-67
2022/03/27 03:13:58;;;;;;;12.87;6.77;;;;;;;10.85;39.08;102234.59;2569297;23;20158;-66
2022/03/27 03:14:58;;;;;;;14.97;6.30;;;;;;;10.53;38.85;102186.63;2569598;23;20375;-66
2022/03/27 03:15:59;;;;;;;11.37;6.73;;;;;;;10.84;39.20;102233.00;2569909;23;20195;-66
2022/03/27 03:17:03;;;;;;;11.80;6.37;;;;;;;10.85;39.34;102240.94;2556319;23;20517;-66
2022/03/27 03:18:05;;;;;;;13.30;7.27;;;;;;;10.86;39.10;102238.97;2557567;23;20376;-67
2022/03/27 03:19:06;;;;;;;12.87;6.97;;;;;;;10.85;39.41;102242.91;2569595;23;20466;-66
2022/03/27 03:20:07;;;;;;;10.90;6.30;;;;;;;10.84;39.65;102241.31;2569863;23;20375;-66
2022/03/27 03:21:08;;;;;;;10.67;6.47;;;;;;;10.84;39.16;102239.38;2569619;23;20636;-66
2022/03/27 03:22:09;;;;;;;11.03;6.27;;;;;;;10.84;39.00;102241.31;2569140;23;20739;-66
2022/03/27 03:23:10;;;;;;;11.83;6.53;;;;;;;10.84;39.27;102238.56;2569574;23;20151;-66
2022/03/27 03:24:10;;;;;;;11.10;6.20;;;;;;;10.84;39.20;102242.13;2569121;23;20809;-66
2022/03/27 03:25:11;;;;;;;9.57;6.07;;;;;;;10.80;39.25;102238.56;2569388;23;20156;-66
2022/03/27 03:26:11;;;;;;;11.00;6.50;;;;;;;10.79;39.00;102236.19;2569892;23;20151;-66
2022/03/27 03:27:12;;;;;;;11.00;6.30;;;;;;;10.24;39.19;102151.78;2569589;23;20159;-66
2022/03/27 03:28:13;;;;;;;13.07;6.20;;;;;;;10.77;39.11;102239.34;2570080;23;20462;-67
2022/03/27 03:29:14;;;;;;;10.37;5.90;;;;;;;10.74;39.55;102236.56;2569496;23;20428;-66
2022/03/27 03:30:16;;;;;;;10.40;6.07;;;;;;;10.73;39.54;102241.34;2556602;23;20161;-66
2022/03/27 03:31:17;;;;;;;12.23;6.27;;;;;;;10.71;39.13;102229.81;2556805;23;20156;-67
2022/03/27 03:32:17;;;;;;;11.03;6.53;;;;;;;10.22;39.37;102165.22;2569320;23;20372;-66
2022/03/27 03:33:20;;;;;;;9.40;6.40;;;;;;;10.73;39.17;102240.53;2569704;23;20156;-67
2022/03/27 03:34:20;;;;;;;12.30;6.33;;;;;;;10.19;39.46;102160.47;2569169;23;20149;-66
2022/03/27 03:35:21;;;;;;;13.80;6.17;;;;;;;10.43;38.91;102195.72;2569709;23;20434;-66
2022/03/27 03:36:22;;;;;;;11.18;6.57;;;;;;;10.68;39.37;102244.50;2569634;23;20152;-67
2022/03/27 03:37:23;;;;;;;10.03;5.97;;;;;;;9.83;39.35;102111.66;2569719;23;20401;-66
2022/03/27 03:38:23;;;;;;;12.27;6.15;;;;;;;10.05;39.46;102152.13;2569611;23;20150;-66
2022/03/27 03:39:24;;;;;;;10.57;5.93;;;;;;;10.54;39.33;102238.91;2569759;23;20149;-67
2022/03/27 03:40:25;;;;;;;12.63;5.90;;;;;;;10.72;39.48;102245.28;2569692;23;20150;-66
2022/03/27 03:41:26;;;;;;;10.73;5.88;;;;;;;10.11;39.32;102161.63;2569650;23;20173;-66
2022/03/27 03:42:27;;;;;;;10.63;6.27;;;;;;;10.72;39.14;102253.59;2569217;23;20230;-66
2022/03/27 03:43:28;;;;;;;12.82;5.93;;;;;;;10.72;39.23;102258.38;2569122;23;20232;-67
2022/03/27 03:44:28;;;;;;;10.63;6.40;;;;;;;10.62;39.44;102250.81;2569265;23;20144;-67
2022/03/27 03:45:29;;;;;;;11.43;6.20;;;;;;;10.25;39.60;102206.78;2569359;23;20212;-66
2022/03/27 03:46:29;;;;;;;11.47;6.40;;;;;;;10.59;39.41;102246.06;2569489;23;20161;-66
2022/03/27 03:47:30;;;;;;;9.90;6.10;;;;;;;10.64;39.43;102252.00;2569706;23;20152;-66
2022/03/27 03:48:31;;;;;;;11.97;6.53;;;;;;;10.68;39.20;102252.00;2569608;23;20158;-66
2022/03/27 03:49:32;;;;;;;9.38;5.70;;;;;;;10.70;39.50;102250.44;2569717;23;20156;-67
2022/03/27 03:50:38;;;;;;;16.23;6.27;;;;;;;10.66;39.41;102246.84;2569526;23;20152;-66
2022/03/27 03:51:38;;;;;;;12.55;5.88;;;;;;;10.73;39.17;102252.44;2569724;23;20644;-67
2022/03/27 03:52:39;;;;;;;14.10;6.80;;;;;;;10.30;39.15;102208.41;2555723;23;20270;-66
2022/03/27 03:53:40;;;;;;;11.83;6.00;;;;;;;10.70;39.30;102250.44;2556100;23;20179;-66
2022/03/27 03:54:40;;;;;;;11.93;5.93;;;;;;;10.69;39.04;102254.41;2556286;23;20767;-66
2022/03/27 03:55:41;;;;;;;12.80;5.83;;;;;;;10.67;39.49;102253.22;2556591;23;20155;-66
2022/03/27 03:56:41;;;;;;;10.20;6.10;;;;;;;10.64;39.49;102249.25;2569548;23;20161;-66
2022/03/27 03:57:42;;;;;;;13.23;6.27;;;;;;;10.59;39.50;102257.13;2569609;23;20247;-66
2022/03/27 03:58:42;;;;;;;14.80;6.80;;;;;;;10.66;39.28;102259.94;2569469;23;20488;-66
2022/03/27 03:59:43;;;;;;;12.60;6.23;;;;;;;10.63;39.43;102258.75;2569780;23;20153;-66
2022/03/27 04:00:46;;;;;;;11.67;6.23;;;;;;;10.00;39.71;102167.09;2569531;23;20178;-67
2022/03/27 04:01:46;;;;;;;11.07;5.80;;;;;;;10.64;39.45;102254.78;2569795;23;20153;-66
2022/03/27 04:02:47;;;;;;;14.60;6.73;;;;;;;10.11;39.30;102192.91;2569013;23;20150;-66
2022/03/27 04:03:47;;;;;;;12.83;5.93;;;;;;;10.65;39.25;102259.13;2569029;23;20163;-66
2022/03/27 04:04:48;;;;;;;13.53;6.10;;;;;;;10.65;39.45;102253.59;2569347;23;20183;-66
2022/03/27 04:05:48;;;;;;;12.20;6.43;;;;;;;10.64;39.48;102262.28;2569692;23;20177;-66
2022/03/27 04:06:49;;;;;;;12.27;6.60;;;;;;;10.32;39.54;102228.97;2569385;23;20229;-66
2022/03/27 04:07:49;;;;;;;13.03;6.37;;;;;;;10.63;39.34;102257.94;2569722;23;20153;-66
2022/03/27 04:08:50;;;;;;;14.17;6.37;;;;;;;10.18;39.49;102190.16;2569565;23;20155;-66
2022/03/27 04:09:51;;;;;;;12.33;6.27;;;;;;;10.61;39.33;102258.31;2569647;23;20152;-67
2022/03/27 04:10:51;;;;;;;12.60;6.20;;;;;;;10.52;39.73;102257.94;2556183;23;20608;-66
2022/03/27 04:11:52;;;;;;;10.33;6.07;;;;;;;10.57;39.29;102267.84;2556206;23;20157;-66
2022/03/27 04:12:52;;;;;;;10.37;6.37;;;;;;;10.60;39.33;102272.63;2569489;23;20149;-66
2022/03/27 04:13:53;;;;;;;11.43;6.73;;;;;;;10.61;39.47;102263.88;2569058;23;20156;-66
2022/03/27 04:14:53;;;;;;;12.40;6.07;;;;;;;10.56;39.78;102266.25;2569478;23;20150;-66
2022/03/27 04:15:54;;;;;;;10.23;6.03;;;;;;;10.53;39.49;102267.84;2569769;23;20224;-66
2022/03/27 04:16:56;;;;;;;11.50;5.93;;;;;;;10.58;39.41;102278.53;2569395;23;20152;-66
2022/03/27 04:17:56;;;;;;;12.60;6.30;;;;;;;10.33;39.33;102240.84;2569778;23;20155;-66
2022/03/27 04:18:57;;;;;;;10.13;6.07;;;;;;;10.57;39.44;102288.03;2569404;23;20207;-66
2022/03/27 04:19:57;;;;;;;10.10;5.80;;;;;;;10.49;39.71;102274.53;2569737;23;20152;-66
2022/03/27 04:20:58;;;;;;;11.53;6.00;;;;;;;10.56;39.45;102285.66;2569322;23;20499;-66
2022/03/27 04:21:58;;;;;;;10.37;5.93;;;;;;;10.51;39.70;102269.41;2569894;23;20602;-66
2022/03/27 04:22:59;;;;;;;13.83;6.73;;;;;;;10.58;39.70;102280.50;2570235;23;20232;-66
2022/03/27 04:23:59;;;;;;;13.73;6.27;;;;;;;10.59;39.45;102271.81;2569939;23;20148;-66
2022/03/27 04:25:00;;;;;;;14.73;6.50;;;;;;;10.56;39.55;102283.66;2570401;23;20153;-66
2022/03/27 04:26:00;;;;;;;10.60;6.17;;;;;;;10.59;39.43;102282.91;2570456;23;20185;-66
2022/03/27 04:27:01;;;;;;;8.60;5.73;;;;;;;10.61;39.18;102283.28;2570389;23;20161;-66
2022/03/27 04:28:07;;;;;;;9.50;6.30;;;;;;;10.61;39.37;102288.06;2570508;23;20158;-66
2022/03/27 04:29:10;;;;;;;11.07;6.45;;;;;;;10.61;39.22;102288.06;2570432;23;20202;-66
2022/03/27 04:30:12;;;;;;;9.98;6.55;;;;;;;10.69;39.42;102284.91;2557365;23;20157;-67
2022/03/27 04:31:13;;;;;;;11.73;6.43;;;;;;;10.73;39.18;102287.66;2557274;23;20153;-67
2022/03/27 04:32:13;;;;;;;10.05;6.13;;;;;;;10.69;39.18;102284.09;2570136;23;20590;-66
2022/03/27 04:33:14;;;;;;;13.47;6.63;;;;;;;10.69;39.42;102282.13;2570155;23;20495;-67
2022/03/27 04:34:15;;;;;;;12.90;6.67;;;;;;;10.18;39.39;102208.72;2569895;23;20737;-67
2022/03/27 04:35:15;;;;;;;11.13;6.70;;;;;;;10.63;38.88;102296.75;2570200;23;20297;-66
2022/03/27 04:36:16;;;;;;;11.47;6.70;;;;;;;10.73;39.27;102284.91;2570609;23;20161;-66
2022/03/27 04:37:17;;;;;;;12.73;6.47;;;;;;;10.26;39.04;102218.66;2570362;23;20183;-66
2022/03/27 04:38:18;;;;;;;11.10;6.32;;;;;;;10.42;39.40;102247.63;2570547;23;20149;-66
2022/03/27 04:39:19;;;;;;;12.23;6.03;;;;;;;10.71;39.42;102296.38;2557132;23;20149;-66
2022/03/27 04:40:19;;;;;;;8.87;6.10;;;;;;;10.31;39.29;102224.59;2557149;23;20150;-66
2022/03/27 04:41:20;;;;;;;11.10;6.27;;;;;;;10.78;39.33;102290.88;2570430;23;20215;-66
2022/03/27 04:42:20;;;;;;;13.23;6.50;;;;;;;10.73;39.31;102284.91;2556507;23;20566;-66
2022/03/27 04:43:22;;;;;;;10.87;6.37;;;;;;;10.86;39.14;102298.00;2544686;23;20155;-66
2022/03/27 04:44:23;;;;;;;9.52;6.50;;;;;;;10.05;39.24;102169.53;2556788;23;20212;-66